EW0648 Weather Reports


Display with metric or nautical units.
time (UTC)temp
F
wind
direction
speed
MPH
gust
MPH
rain 1hr
in
rain 24hr
in
rain mn
in
humidity
%
barometer
mb
20200711202746 89 294 3.0 12.0 0.00 0.00 0.00 73 1012.1
20200711202245 88 288 2.0 7.0 0.00 0.00 0.00 72 1012.1
20200711200745 89 256 6.0 10.0 0.00 0.00 0.00 71 1012.2
20200711195744 90 272 2.0 6.0 0.00 0.00 0.00 70 1012.3
20200711195245 90 301 1.0 3.0 0.00 0.00 0.00 71 1012.3
20200711194747 90 300 5.0 12.0 0.00 0.00 0.00 69 1012.3
20200711194246 90 286 5.0 8.0 0.00 0.00 0.00 69 1012.6
20200711193745 90 286 2.0 8.0 0.00 0.00 0.00 69 1012.6
20200711193246 90 309 5.0 9.0 0.00 0.00 0.00 69 1012.7
20200711192745 91 287 3.0 7.0 0.00 0.00 0.00 67 1012.8
20200711192245 90 327 6.0 13.0 0.00 0.00 0.00 69 1012.9
20200711191747 90 312 6.0 9.0 0.00 0.00 0.00 66 1012.9
20200711191247 91 260 2.0 8.0 0.00 0.00 0.00 65 1013.0
20200711190245 91 290 3.0 9.0 0.00 0.00 0.00 67 1013.0
20200711185245 90 292 4.0 9.0 0.00 0.00 0.00 70 1013.1
20200711183747 91 313 3.0 10.0 0.00 0.00 0.00 70 1013.3
20200711183246 91 300 5.0 8.0 0.00 0.00 0.00 69 1013.2
20200711182244 90 298 4.0 9.0 0.00 0.00 0.00 71 1013.3
20200711181746 90 315 3.0 12.0 0.00 0.00 0.00 71 1013.3
20200711180746 90 288 5.0 10.0 0.00 0.00 0.00 71 1013.3
20200711180245 91 283 5.0 12.0 0.00 0.00 0.00 70 1013.5
20200711175245 91 297 5.0 9.0 0.00 0.00 0.00 69 1013.5
20200711174747 90 310 3.0 7.0 0.00 0.00 0.00 69 1013.5
20200711174245 90 275 6.0 10.0 0.00 0.00 0.00 70 1013.6
20200711173745 91 263 3.0 6.0 0.00 0.00 0.00 70 1013.7
20200711173245 90 317 5.0 16.0 0.00 0.00 0.00 71 1013.7
20200711172745 89 258 3.0 8.0 0.00 0.00 0.00 74 1013.6
20200711171246 90 272 5.0 16.0 0.00 0.00 0.00 74 1013.7
20200711165746 90 274 3.0 7.0 0.00 0.00 0.00 72 1013.8
20200711165247 89 298 2.0 5.0 0.00 0.00 0.00 74 1013.8
20200711164747 89 330 3.0 10.0 0.00 0.00 0.00 73 1013.9
20200711164246 87 328 2.0 6.0 0.00 0.00 0.00 72 1013.8
20200711163745 86 269 2.0 3.0 0.00 0.00 0.00 73 1013.9
20200711162745 87 319 4.0 8.0 0.00 0.00 0.00 75 1013.9
20200711162245 87 314 5.0 15.0 0.00 0.00 0.00 73 1014.0
20200711161249 90 267 7.0 16.0 0.00 0.00 0.00 73 1013.9
20200711160246 89 276 3.0 10.0 0.00 0.00 0.00 74 1013.9
20200711154747 89 260 1.0 6.0 0.00 0.00 0.00 73 1014.0
20200711154247 89 295 4.0 9.0 0.00 0.00 0.00 73 1014.0
20200711153745 90 267 1.0 9.0 0.00 0.00 0.00 72 1014.0
20200711152746 90 264 1.0 5.0 0.00 0.00 0.00 71 1014.1
20200711152247 89 273 2.0 7.0 0.00 0.00 0.00 72 1014.1
20200711151245 89 303 2.0 8.0 0.00 0.00 0.00 71 1014.2
20200711150746 89 267 2.0 10.0 0.00 0.00 0.00 70 1014.2
20200711150245 89 299 3.0 8.0 0.00 0.00 0.00 69 1014.1
20200711145746 90 261 2.0 8.0 0.00 0.00 0.00 72 1014.1
20200711145249 89 297 2.0 5.0 0.00 0.00 0.00 72 1014.1
20200711144246 88 275 1.0 9.0 0.00 0.00 0.00 73 1014.0
20200711143746 88 273 4.0 13.0 0.00 0.00 0.00 73 1013.9
20200711143246 89 269 0.0 7.0 0.00 0.00 0.00 72 1013.9
20200711142746 89 259 1.0 7.0 0.00 0.00 0.00 72 1014.0
20200711142245 89 285 2.0 8.0 0.00 0.00 0.00 71 1013.9
20200711141746 89 255 2.0 6.0 0.00 0.00 0.00 72 1014.0
20200711141247 89 328 1.0 7.0 0.00 0.00 0.00 73 1013.9
20200711140745 88 314 4.0 10.0 0.00 0.00 0.00 74 1013.9
20200711140246 88 280 2.0 9.0 0.00 0.00 0.00 75 1014.0
20200711135246 87 285 4.0 9.0 0.00 0.00 0.00 76 1014.1
20200711134246 87 283 1.0 7.0 0.00 0.00 0.00 78 1014.2
20200711133746 87 297 3.0 7.0 0.00 0.00 0.00 76 1014.2
20200711133245 87 271 3.0 8.0 0.00 0.00 0.00 75 1014.2
20200711132745 88 299 2.0 12.0 0.00 0.00 0.00 76 1014.3
20200711132246 87 261 2.0 12.0 0.00 0.00 0.00 77 1014.3
20200711131745 87 256 3.0 10.0 0.00 0.00 0.00 76 1014.3
20200711131246 87 279 3.0 8.0 0.00 0.00 0.00 76 1014.2
20200711130747 86 277 2.0 8.0 0.00 0.00 0.00 77 1014.3
20200711130247 86 266 2.0 7.0 0.00 0.00 0.00 78 1014.3
20200711125746 86 266 3.0 7.0 0.00 0.00 0.00 79 1014.2
20200711124748 86 284 2.0 9.0 0.00 0.00 0.00 79 1014.2
20200711123246 86 275 1.0 13.0 0.00 0.00 0.00 79 1013.9
20200711122746 85 270 2.0 6.0 0.00 0.00 0.00 79 1014.0
20200711122247 85 283 1.0 5.0 0.00 0.00 0.00 80 1013.9
20200711121746 85 272 0.0 3.0 0.00 0.00 0.00 81 1013.8
20200711121245 85 283 1.0 5.0 0.00 0.00 0.00 82 1013.8
20200711120746 84 260 3.0 7.0 0.00 0.00 0.00 82 1013.7
20200711120248 84 288 2.0 9.0 0.00 0.00 0.00 82 1013.7
20200711115746 84 273 1.0 5.0 0.00 0.00 0.00 82 1013.7
20200711115246 84 290 3.0 8.0 0.00 0.00 0.00 82 1013.6
20200711114746 84 275 1.0 5.0 0.00 0.00 0.00 83 1013.5
20200711114245 84 272 0.0 3.0 0.00 0.00 0.00 83 1013.5
20200711113748 84 280 2.0 7.0 0.00 0.00 0.00 83 1013.5
20200711113246 84 260 1.0 6.0 0.00 0.00 0.00 83 1013.3
20200711112748 84 284 1.0 7.0 0.00 0.00 0.00 83 1013.3
20200711112245 84 257 1.0 8.0 0.00 0.00 0.00 84 1013.3
20200711111748 84 272 1.0 5.0 0.00 0.00 0.00 85 1013.4
20200711111245 84 269 1.0 6.0 0.00 0.00 0.00 85 1013.3
20200711110746 84 262 3.0 9.0 0.00 0.00 0.00 85 1013.2
20200711110247 83 275 1.0 5.0 0.00 0.00 0.00 84 1013.2
20200711105747 83 283 0.0 7.0 0.00 0.00 0.00 84 1013.2
20200711104746 83 247 1.0 7.0 0.00 0.00 0.00 85 1013.1
20200711104249 83 266 1.0 5.0 0.00 0.00 0.00 85 1013.1
20200711103746 83 260 0.0 5.0 0.00 0.00 0.00 85 1013.1
20200711103247 83 269 1.0 5.0 0.00 0.00 0.00 86 1013.1
20200711102746 83 272 2.0 6.0 0.00 0.00 0.00 86 1013.1
20200711102249 83 264 5.0 15.0 0.00 0.00 0.00 86 1013.0
20200711101747 84 283 2.0 9.0 0.00 0.00 0.00 86 1013.0
20200711101246 84 255 1.0 6.0 0.00 0.00 0.00 86 1013.0
20200711100749 83 272 1.0 5.0 0.00 0.00 0.00 85 1012.9
20200711100246 83 263 2.0 6.0 0.00 0.00 0.00 84 1012.9
20200711095746 83 279 1.0 7.0 0.00 0.00 0.00 84 1012.9
20200711095245 83 263 1.0 3.0 0.00 0.00 0.00 84 1012.9
20200711094746 83 286 0.0 6.0 0.00 0.00 0.00 84 1012.8
20200711093746 83 251 1.0 5.0 0.00 0.00 0.00 84 1012.7
20200711093247 83 248 0.0 5.0 0.00 0.00 0.00 84 1012.7
20200711092747 83 263 1.0 6.0 0.00 0.00 0.00 85 1012.7
20200711092247 83 267 1.0 6.0 0.00 0.00 0.00 85 1012.7
20200711090746 83 265 1.0 5.0 0.00 0.00 0.00 85 1012.7
20200711090246 83 284 1.0 5.0 0.00 0.00 0.00 85 1012.6
20200711085247 83 294 0.0 5.0 0.00 0.00 0.00 85 1012.7
20200711084752 83 253 0.0 3.0 0.00 0.00 0.00 86 1012.8
20200711084246 83 267 1.0 3.0 0.00 0.00 0.00 86 1012.8
20200711083747 83 312 0.0 0.0 0.00 0.00 0.00 86 1012.8
20200711082246 83 257 0.0 2.0 0.00 0.00 0.00 85 1013.0
20200711081748 83 284 1.0 3.0 0.00 0.00 0.00 85 1013.0
20200711081246 83 272 0.0 1.0 0.00 0.00 0.00 85 1013.1
20200711080746 83 272 0.0 2.0 0.00 0.00 0.00 85 1013.1
20200711080247 83 250 0.0 3.0 0.00 0.00 0.00 86 1013.2
20200711075247 83 274 0.0 1.0 0.00 0.00 0.00 85 1013.2
20200711074246 83 269 0.0 1.0 0.00 0.00 0.00 85 1013.2
20200711073748 83 289 0.0 1.0 0.00 0.00 0.00 85 1013.2
20200711073247 83 316 1.0 5.0 0.00 0.00 0.00 85 1013.3
20200711072747 83 260 0.0 1.0 0.00 0.00 0.00 85 1013.3
20200711072247 83 297 0.0 2.0 0.00 0.00 0.00 84 1013.4
20200711070748 83 269 1.0 3.0 0.00 0.02 0.00 85 1013.5
20200711065747 83 304 0.0 3.0 0.00 0.02 0.00 86 1013.7
20200711065247 83 300 0.0 2.0 0.00 0.02 0.00 85 1013.7
20200711064746 83 247 0.0 1.0 0.00 0.02 0.00 85 1013.7
20200711064306 83 271 1.0 3.0 0.00 0.03 0.00 85 1013.7
20200711062246 83 339 0.0 3.0 0.00 0.03 0.00 85 1014.0
20200711061247 83 242 0.0 3.0 0.00 0.03 0.00 85 1014.0
20200711060747 83 258 0.0 3.0 0.00 0.03 0.00 85 1014.1
20200711060247 84 265 0.0 6.0 0.00 0.03 0.00 85 1014.1
20200711055747 84 271 1.0 5.0 0.00 0.03 0.00 85 1014.1
20200711054748 84 248 0.0 2.0 0.00 0.03 0.00 85 1014.2
20200711054247 84 286 0.0 1.0 0.00 0.03 0.00 84 1014.3
20200711053746 84 271 0.0 2.0 0.00 0.03 0.00 84 1014.3
20200711053247 84 270 0.0 2.0 0.00 0.03 0.00 84 1014.4
20200711052747 84 264 1.0 8.0 0.00 0.03 0.00 84 1014.4
20200711051749 84 276 0.0 2.0 0.00 0.03 0.00 85 1014.5
20200711050747 84 221 0.0 1.0 0.00 0.03 0.00 85 1014.5
20200711045747 84 249 0.0 3.0 0.00 0.03 0.00 85 1014.5
20200711045247 84 272 0.0 7.0 0.00 0.03 0.00 85 1014.6
20200711044747 84 262 0.0 3.0 0.00 0.03 0.00 85 1014.7
20200711044247 84 260 1.0 5.0 0.00 0.03 0.00 85 1014.7
20200711043801 84 249 0.0 5.0 0.00 0.03 0.00 84 1014.7
20200711043247 84 280 1.0 5.0 0.00 0.03 0.00 84 1014.7
20200711042747 84 261 1.0 5.0 0.00 0.03 0.00 84 1014.8
20200711042249 84 256 0.0 2.0 0.00 0.03 0.00 84 1014.8
20200711040248 84 284 0.0 2.0 0.00 0.03 0.00 85 1015.0
20200711035747 84 349 2.0 6.0 0.00 0.03 0.03 85 1015.0
20200711034747 84 242 0.0 3.0 0.00 0.03 0.03 84 1015.1
20200711034246 84 270 1.0 3.0 0.00 0.03 0.03 84 1015.1
20200711033249 84 275 1.0 5.0 0.00 0.03 0.03 84 1015.1
20200711032749 84 267 0.0 2.0 0.00 0.03 0.03 85 1015.2
20200711032250 84 257 1.0 3.0 0.00 0.03 0.03 84 1015.1
20200711031747 84 281 0.0 2.0 0.00 0.03 0.03 84 1015.1
20200711031247 85 243 0.0 2.0 0.00 0.03 0.03 84 1015.2
20200711030748 84 260 1.0 3.0 0.00 0.03 0.03 84 1015.2
20200711025747 85 269 1.0 5.0 0.00 0.03 0.03 84 1015.2
20200711025249 85 282 1.0 6.0 0.00 0.03 0.03 84 1015.1
20200711023749 85 267 1.0 3.0 0.00 0.03 0.03 84 1014.9
20200711023248 85 260 1.0 6.0 0.00 0.03 0.03 84 1014.9
20200711022250 85 294 0.0 6.0 0.00 0.03 0.03 84 1014.8
20200711021747 85 316 0.0 2.0 0.00 0.03 0.03 84 1014.7
20200711021248 85 285 0.0 2.0 0.00 0.03 0.03 84 1014.8
20200711020746 85 275 1.0 5.0 0.00 0.03 0.03 84 1014.6
20200711020251 85 296 1.0 3.0 0.00 0.03 0.03 84 1014.5
20200711015751 85 275 0.0 2.0 0.00 0.03 0.03 84 1014.6
20200711015247 85 254 2.0 7.0 0.00 0.03 0.03 84 1014.6
20200711014747 85 264 1.0 7.0 0.00 0.03 0.03 84 1014.6
20200711014249 85 269 1.0 3.0 0.00 0.03 0.03 84 1014.6
20200711013250 85 263 2.0 7.0 0.00 0.03 0.03 84 1014.5
20200711012749 85 282 2.0 5.0 0.00 0.03 0.03 84 1014.5
20200711012250 85 274 0.0 2.0 0.00 0.03 0.03 83 1014.5
20200711011248 85 267 0.0 5.0 0.00 0.03 0.03 84 1014.6
20200711010248 85 288 1.0 2.0 0.00 0.03 0.03 83 1014.7
20200711005748 85 284 1.0 2.0 0.00 0.03 0.03 83 1014.7
20200711005248 85 317 1.0 5.0 0.00 0.03 0.03 83 1014.6
20200711004747 85 268 1.0 5.0 0.00 0.03 0.03 84 1014.5
20200711003749 85 255 0.0 2.0 0.00 0.03 0.03 84 1014.5
20200711003248 85 278 1.0 5.0 0.00 0.03 0.03 83 1014.5
20200711002749 86 289 1.0 3.0 0.00 0.03 0.03 83 1014.5
20200711001748 86 287 0.0 2.0 0.00 0.03 0.03 82 1014.4
20200711001247 86 285 2.0 5.0 0.00 0.03 0.03 82 1014.4
20200711000249 86 281 0.0 1.0 0.00 0.03 0.03 81 1014.2
20200710235748 86 300 2.0 6.0 0.00 0.03 0.03 81 1014.1
20200710235247 86 271 1.0 3.0 0.00 0.03 0.03 81 1014.1
20200710234748 86 319 2.0 8.0 0.00 0.03 0.03 80 1014.1
20200710234249 86 325 1.0 9.0 0.00 0.03 0.03 80 1014.1
20200710233749 86 279 0.0 8.0 0.00 0.03 0.03 80 1014.1
20200710232749 87 255 1.0 3.0 0.00 0.03 0.03 80 1014.0
20200710232247 87 285 1.0 7.0 0.00 0.03 0.03 79 1013.9
20200710231749 87 299 1.0 5.0 0.00 0.03 0.03 78 1013.9
20200710230748 88 273 3.0 7.0 0.00 0.03 0.03 76 1013.9
20200710230248 88 292 2.0 5.0 0.00 0.03 0.03 75 1013.9
20200710225747 88 292 1.0 3.0 0.00 0.03 0.03 74 1013.8
20200710225248 88 290 2.0 7.0 0.00 0.03 0.03 74 1013.8
20200710224749 89 306 2.0 8.0 0.00 0.03 0.03 73 1013.8
20200710223748 89 299 2.0 8.0 0.00 0.03 0.03 75 1013.7
20200710223248 89 311 3.0 8.0 0.00 0.03 0.03 74 1013.6
20200710222749 89 318 3.0 12.0 0.00 0.03 0.03 74 1013.6
20200710222248 89 303 2.0 7.0 0.00 0.03 0.03 74 1013.5
20200710221748 90 324 2.0 6.0 0.00 0.03 0.03 73 1013.4
20200710221247 89 264 1.0 6.0 0.00 0.03 0.03 73 1013.5
20200710220747 89 277 3.0 8.0 0.00 0.03 0.03 73 1013.5
20200710215748 89 286 2.0 8.0 0.00 0.03 0.03 73 1013.4
20200710215248 89 283 2.0 10.0 0.00 0.03 0.03 74 1013.3
20200710214748 89 340 3.0 12.0 0.00 0.03 0.03 73 1013.4
20200710214247 89 275 4.0 8.0 0.00 0.03 0.03 73 1013.5
20200710213748 89 291 7.0 16.0 0.00 0.03 0.03 72 1013.5
20200710213247 89 324 3.0 13.0 0.00 0.03 0.03 73 1013.5
20200710212748 89 305 5.0 10.0 0.00 0.03 0.03 74 1013.6
20200710211250 91 292 4.0 9.0 0.00 0.03 0.03 73 1013.8
20200710210748 90 260 1.0 7.0 0.00 0.03 0.03 74 1013.8
20200710210252 90 264 2.0 8.0 0.00 0.03 0.03 73 1013.8
20200710205747 91 269 3.0 10.0 0.00 0.03 0.03 73 1013.8
20200710205248 91 295 1.0 9.0 0.00 0.03 0.03 73 1013.8
20200710204748 91 305 3.0 9.0 0.00 0.03 0.03 72 1013.8
20200710204249 90 312 3.0 10.0 0.00 0.03 0.03 73 1013.9
20200710203748 91 300 3.0 10.0 0.00 0.03 0.03 72 1013.9
20200710203248 91 294 5.0 12.0 0.00 0.03 0.03 73 1013.9